sensor_id;sensor_type;location;lat;lon;timestamp;temperature;humidity
16285;DHT22;8250;52.426;9.450;2022-07-01T00:00:18;19.80;99.90
16285;DHT22;8250;52.426;9.450;2022-07-01T00:02:47;19.70;99.90
16285;DHT22;8250;52.426;9.450;2022-07-01T00:05:14;19.70;99.90
16285;DHT22;8250;52.426;9.450;2022-07-01T00:07:40;19.70;99.90
16285;DHT22;8250;52.426;9.450;2022-07-01T00:10:08;19.60;99.90
16285;DHT22;8250;52.426;9.450;2022-07-01T00:12:35;19.60;99.90
16285;DHT22;8250;52.426;9.450;2022-07-01T00:15:03;19.60;99.90
16285;DHT22;8250;52.426;9.450;2022-07-01T00:17:30;19.60;99.90
16285;DHT22;8250;52.426;9.450;2022-07-01T00:19:58;19.60;99.90
16285;DHT22;8250;52.426;9.450;2022-07-01T00:22:25;19.50;99.90
16285;DHT22;8250;52.426;9.450;2022-07-01T00:24:53;19.50;99.90
16285;DHT22;8250;52.426;9.450;2022-07-01T00:27:20;19.50;99.90
16285;DHT22;8250;52.426;9.450;2022-07-01T00:29:47;19.40;99.90
16285;DHT22;8250;52.426;9.450;2022-07-01T00:32:14;19.50;99.90
16285;DHT22;8250;52.426;9.450;2022-07-01T00:34:41;19.40;99.90
16285;DHT22;8250;52.426;9.450;2022-07-01T00:37:10;19.40;99.90
16285;DHT22;8250;52.426;9.450;2022-07-01T00:39:36;19.40;99.90
16285;DHT22;8250;52.426;9.450;2022-07-01T00:42:04;19.20;99.90
16285;DHT22;8250;52.426;9.450;2022-07-01T00:44:32;19.20;99.90
16285;DHT22;8250;52.426;9.450;2022-07-01T00:47:02;19.10;99.90
16285;DHT22;8250;52.426;9.450;2022-07-01T00:49:30;19.10;99.90
16285;DHT22;8250;52.426;9.450;2022-07-01T00:51:57;19.10;99.90
16285;DHT22;8250;52.426;9.450;2022-07-01T00:54:26;19.10;99.90
16285;DHT22;8250;52.426;9.450;2022-07-01T00:56:53;19.00;99.90
16285;DHT22;8250;52.426;9.450;2022-07-01T00:59:20;18.90;99.90
16285;DHT22;8250;52.426;9.450;2022-07-01T01:01:47;18.80;99.90
16285;DHT22;8250;52.426;9.450;2022-07-01T01:04:14;18.70;99.90
16285;DHT22;8250;52.426;9.450;2022-07-01T01:06:41;18.60;99.90
16285;DHT22;8250;52.426;9.450;2022-07-01T01:09:08;18.60;99.90
16285;DHT22;8250;52.426;9.450;2022-07-01T01:11:37;18.50;99.90
16285;DHT22;8250;52.426;9.450;2022-07-01T01:14:04;18.40;99.90
16285;DHT22;8250;52.426;9.450;2022-07-01T01:16:31;18.20;99.90
16285;DHT22;8250;52.426;9.450;2022-07-01T01:18:59;18.30;99.90
16285;DHT22;8250;52.426;9.450;2022-07-01T01:21:29;18.20;99.90
16285;DHT22;8250;52.426;9.450;2022-07-01T01:23:57;18.20;99.90
16285;DHT22;8250;52.426;9.450;2022-07-01T01:26:24;18.20;99.90
16285;DHT22;8250;52.426;9.450;2022-07-01T01:28:53;18.20;99.90
16285;DHT22;8250;52.426;9.450;2022-07-01T01:31:27;18.20;99.90
16285;DHT22;8250;52.426;9.450;2022-07-01T01:33:56;18.20;99.90
16285;DHT22;8250;52.426;9.450;2022-07-01T01:36:23;18.20;99.90
16285;DHT22;8250;52.426;9.450;2022-07-01T01:38:51;18.20;99.90
16285;DHT22;8250;52.426;9.450;2022-07-01T01:41:19;18.10;99.90
16285;DHT22;8250;52.426;9.450;2022-07-01T01:43:46;18.10;99.90
16285;DHT22;8250;52.426;9.450;2022-07-01T01:46:13;18.10;99.90
16285;DHT22;8250;52.426;9.450;2022-07-01T01:48:40;18.10;99.90
16285;DHT22;8250;52.426;9.450;2022-07-01T01:51:07;18.00;99.90
16285;DHT22;8250;52.426;9.450;2022-07-01T01:53:34;18.00;99.90
16285;DHT22;8250;52.426;9.450;2022-07-01T01:56:02;18.00;99.90
16285;DHT22;8250;52.426;9.450;2022-07-01T01:58:29;18.00;99.90
16285;DHT22;8250;52.426;9.450;2022-07-01T02:00:56;17.90;99.90
16285;DHT22;8250;52.426;9.450;2022-07-01T02:03:23;17.90;99.90
16285;DHT22;8250;52.426;9.450;2022-07-01T02:05:50;17.90;99.90
16285;DHT22;8250;52.426;9.450;2022-07-01T02:08:17;17.90;99.90
16285;DHT22;8250;52.426;9.450;2022-07-01T02:10:44;17.90;99.90
16285;DHT22;8250;52.426;9.450;2022-07-01T02:13:12;17.80;99.90
16285;DHT22;8250;52.426;9.450;2022-07-01T02:15:39;17.80;99.90
16285;DHT22;8250;52.426;9.450;2022-07-01T02:18:06;17.80;99.90
16285;DHT22;8250;52.426;9.450;2022-07-01T02:20:33;17.90;99.90
16285;DHT22;8250;52.426;9.450;2022-07-01T02:23:00;17.80;99.90
16285;DHT22;8250;52.426;9.450;2022-07-01T02:25:27;17.70;99.90
16285;DHT22;8250;52.426;9.450;2022-07-01T02:27:54;17.70;99.90
16285;DHT22;8250;52.426;9.450;2022-07-01T02:30:22;17.60;99.90
16285;DHT22;8250;52.426;9.450;2022-07-01T02:32:49;17.60;99.90
16285;DHT22;8250;52.426;9.450;2022-07-01T02:35:16;17.60;99.90
16285;DHT22;8250;52.426;9.450;2022-07-01T02:37:43;17.50;99.90
16285;DHT22;8250;52.426;9.450;2022-07-01T02:40:10;17.50;99.90
16285;DHT22;8250;52.426;9.450;2022-07-01T02:42:39;17.50;99.90
16285;DHT22;8250;52.426;9.450;2022-07-01T02:45:07;17.40;99.90
16285;DHT22;8250;52.426;9.450;2022-07-01T02:47:37;17.50;99.90
16285;DHT22;8250;52.426;9.450;2022-07-01T02:50:05;17.40;99.90
16285;DHT22;8250;52.426;9.450;2022-07-01T02:52:33;17.40;99.90
16285;DHT22;8250;52.426;9.450;2022-07-01T02:55:00;17.30;99.90
16285;DHT22;8250;52.426;9.450;2022-07-01T02:57:27;17.40;99.90
16285;DHT22;8250;52.426;9.450;2022-07-01T02:59:54;17.40;99.90
16285;DHT22;8250;52.426;9.450;2022-07-01T03:02:21;17.30;99.90
16285;DHT22;8250;52.426;9.450;2022-07-01T03:04:51;17.30;99.90
16285;DHT22;8250;52.426;9.450;2022-07-01T03:07:18;17.20;99.90
16285;DHT22;8250;52.426;9.450;2022-07-01T03:09:46;17.20;99.90
16285;DHT22;8250;52.426;9.450;2022-07-01T03:12:13;17.10;99.90
16285;DHT22;8250;52.426;9.450;2022-07-01T03:14:54;17.10;99.90
16285;DHT22;8250;52.426;9.450;2022-07-01T03:17:22;17.10;99.90
16285;DHT22;8250;52.426;9.450;2022-07-01T03:19:50;17.10;99.90
16285;DHT22;8250;52.426;9.450;2022-07-01T03:22:18;17.10;99.90
16285;DHT22;8250;52.426;9.450;2022-07-01T03:24:46;17.00;99.90
16285;DHT22;8250;52.426;9.450;2022-07-01T03:27:13;17.00;99.90
16285;DHT22;8250;52.426;9.450;2022-07-01T03:29:40;16.90;99.90
16285;DHT22;8250;52.426;9.450;2022-07-01T03:32:07;16.90;99.90
16285;DHT22;8250;52.426;9.450;2022-07-01T03:34:35;16.90;99.90
16285;DHT22;8250;52.426;9.450;2022-07-01T03:37:04;16.80;99.90
16285;DHT22;8250;52.426;9.450;2022-07-01T03:39:31;16.80;99.90
16285;DHT22;8250;52.426;9.450;2022-07-01T03:41:59;16.80;99.90
16285;DHT22;8250;52.426;9.450;2022-07-01T03:44:25;16.70;99.90
16285;DHT22;8250;52.426;9.450;2022-07-01T03:46:52;16.70;99.90
16285;DHT22;8250;52.426;9.450;2022-07-01T03:49:19;16.60;99.90
16285;DHT22;8250;52.426;9.450;2022-07-01T03:51:46;16.70;99.90
16285;DHT22;8250;52.426;9.450;2022-07-01T03:54:15;16.60;99.90
16285;DHT22;8250;52.426;9.450;2022-07-01T03:56:56;16.60;99.90
16285;DHT22;8250;52.426;9.450;2022-07-01T03:59:23;16.60;99.90
16285;DHT22;8250;52.426;9.450;2022-07-01T04:01:51;16.60;99.90
16285;DHT22;8250;52.426;9.450;2022-07-01T04:04:17;16.60;99.90
16285;DHT22;8250;52.426;9.450;2022-07-01T04:06:45;16.60;99.90
16285;DHT22;8250;52.426;9.450;2022-07-01T04:09:16;16.60;99.90
16285;DHT22;8250;52.426;9.450;2022-07-01T04:11:43;16.70;99.90
16285;DHT22;8250;52.426;9.450;2022-07-01T04:14:12;16.70;99.90
16285;DHT22;8250;52.426;9.450;2022-07-01T04:16:39;16.70;99.90
16285;DHT22;8250;52.426;9.450;2022-07-01T04:19:08;16.70;99.90
16285;DHT22;8250;52.426;9.450;2022-07-01T04:21:35;16.70;99.90
16285;DHT22;8250;52.426;9.450;2022-07-01T04:24:21;16.80;99.90
16285;DHT22;8250;52.426;9.450;2022-07-01T04:26:50;16.80;99.90
16285;DHT22;8250;52.426;9.450;2022-07-01T04:29:17;16.70;99.90
16285;DHT22;8250;52.426;9.450;2022-07-01T04:31:45;16.80;99.90
16285;DHT22;8250;52.426;9.450;2022-07-01T04:34:13;16.80;99.90
16285;DHT22;8250;52.426;9.450;2022-07-01T04:36:40;16.70;99.90
16285;DHT22;8250;52.426;9.450;2022-07-01T04:39:07;16.70;99.90
16285;DHT22;8250;52.426;9.450;2022-07-01T04:41:35;16.80;99.90
16285;DHT22;8250;52.426;9.450;2022-07-01T04:44:19;16.70;99.90
16285;DHT22;8250;52.426;9.450;2022-07-01T04:46:46;16.70;99.90
16285;DHT22;8250;52.426;9.450;2022-07-01T04:49:14;16.70;99.90
16285;DHT22;8250;52.426;9.450;2022-07-01T04:51:41;16.70;99.90
16285;DHT22;8250;52.426;9.450;2022-07-01T04:54:08;16.70;99.90
16285;DHT22;8250;52.426;9.450;2022-07-01T04:56:37;16.70;99.90
16285;DHT22;8250;52.426;9.450;2022-07-01T04:59:05;16.70;99.90
16285;DHT22;8250;52.426;9.450;2022-07-01T05:01:32;16.80;99.90
16285;DHT22;8250;52.426;9.450;2022-07-01T05:04:00;16.80;99.90
16285;DHT22;8250;52.426;9.450;2022-07-01T05:06:27;16.80;99.90
16285;DHT22;8250;52.426;9.450;2022-07-01T05:08:53;16.80;99.90
16285;DHT22;8250;52.426;9.450;2022-07-01T05:11:20;16.70;99.90
16285;DHT22;8250;52.426;9.450;2022-07-01T05:13:49;16.70;99.90
16285;DHT22;8250;52.426;9.450;2022-07-01T05:16:17;16.60;99.90
16285;DHT22;8250;52.426;9.450;2022-07-01T05:18:44;16.60;99.90
16285;DHT22;8250;52.426;9.450;2022-07-01T05:21:29;16.60;99.90
16285;DHT22;8250;52.426;9.450;2022-07-01T05:24:13;16.50;99.90
16285;DHT22;8250;52.426;9.450;2022-07-01T05:26:41;16.50;99.90
16285;DHT22;8250;52.426;9.450;2022-07-01T05:29:09;16.50;99.90
16285;DHT22;8250;52.426;9.450;2022-07-01T05:31:36;16.60;99.90
16285;DHT22;8250;52.426;9.450;2022-07-01T05:34:03;16.60;99.90
16285;DHT22;8250;52.426;9.450;2022-07-01T05:36:30;16.60;99.90
16285;DHT22;8250;52.426;9.450;2022-07-01T05:38:57;16.60;99.90
16285;DHT22;8250;52.426;9.450;2022-07-01T05:41:24;16.60;99.90
16285;DHT22;8250;52.426;9.450;2022-07-01T05:43:51;16.60;99.90
16285;DHT22;8250;52.426;9.450;2022-07-01T05:46:19;16.60;99.90
16285;DHT22;8250;52.426;9.450;2022-07-01T05:48:46;16.60;99.90
16285;DHT22;8250;52.426;9.450;2022-07-01T05:51:13;16.60;99.90
16285;DHT22;8250;52.426;9.450;2022-07-01T05:53:40;16.60;99.90
16285;DHT22;8250;52.426;9.450;2022-07-01T05:56:09;16.60;99.90
16285;DHT22;8250;52.426;9.450;2022-07-01T05:58:35;16.60;99.90
16285;DHT22;8250;52.426;9.450;2022-07-01T06:01:02;16.60;99.90
16285;DHT22;8250;52.426;9.450;2022-07-01T06:03:31;16.70;99.90
16285;DHT22;8250;52.426;9.450;2022-07-01T06:06:00;16.70;99.90
16285;DHT22;8250;52.426;9.450;2022-07-01T06:08:28;16.70;99.90
16285;DHT22;8250;52.426;9.450;2022-07-01T06:10:56;16.70;99.90
16285;DHT22;8250;52.426;9.450;2022-07-01T06:13:23;16.70;99.90
16285;DHT22;8250;52.426;9.450;2022-07-01T06:15:49;16.80;99.90
16285;DHT22;8250;52.426;9.450;2022-07-01T06:18:16;16.80;99.90
16285;DHT22;8250;52.426;9.450;2022-07-01T06:20:45;16.80;99.90
16285;DHT22;8250;52.426;9.450;2022-07-01T06:23:12;16.80;99.90
16285;DHT22;8250;52.426;9.450;2022-07-01T06:25:38;16.80;99.90
16285;DHT22;8250;52.426;9.450;2022-07-01T06:28:05;16.80;99.90
16285;DHT22;8250;52.426;9.450;2022-07-01T06:30:32;16.80;99.90
16285;DHT22;8250;52.426;9.450;2022-07-01T06:32:59;16.80;99.90
16285;DHT22;8250;52.426;9.450;2022-07-01T06:35:26;16.80;99.90
16285;DHT22;8250;52.426;9.450;2022-07-01T06:37:54;16.80;99.90
16285;DHT22;8250;52.426;9.450;2022-07-01T06:40:21;16.80;99.90
16285;DHT22;8250;52.426;9.450;2022-07-01T06:42:48;16.80;99.90
16285;DHT22;8250;52.426;9.450;2022-07-01T06:45:16;16.90;99.90
16285;DHT22;8250;52.426;9.450;2022-07-01T06:47:43;16.90;99.90
16285;DHT22;8250;52.426;9.450;2022-07-01T06:50:10;16.90;99.90
16285;DHT22;8250;52.426;9.450;2022-07-01T06:52:37;16.90;99.90
16285;DHT22;8250;52.426;9.450;2022-07-01T06:55:06;16.80;99.90
16285;DHT22;8250;52.426;9.450;2022-07-01T06:57:33;16.80;99.90
16285;DHT22;8250;52.426;9.450;2022-07-01T07:00:00;16.80;99.90
16285;DHT22;8250;52.426;9.450;2022-07-01T07:02:29;16.80;99.90
16285;DHT22;8250;52.426;9.450;2022-07-01T07:04:56;16.80;99.90
16285;DHT22;8250;52.426;9.450;2022-07-01T07:07:24;16.80;99.90
16285;DHT22;8250;52.426;9.450;2022-07-01T07:09:51;16.80;99.90
16285;DHT22;8250;52.426;9.450;2022-07-01T07:12:19;16.80;99.90
16285;DHT22;8250;52.426;9.450;2022-07-01T07:14:46;16.80;99.90
16285;DHT22;8250;52.426;9.450;2022-07-01T07:17:13;16.80;99.90
16285;DHT22;8250;52.426;9.450;2022-07-01T07:19:40;16.80;99.90
16285;DHT22;8250;52.426;9.450;2022-07-01T07:22:07;16.90;99.90
16285;DHT22;8250;52.426;9.450;2022-07-01T07:24:34;16.80;99.90
16285;DHT22;8250;52.426;9.450;2022-07-01T07:27:01;16.90;99.90
16285;DHT22;8250;52.426;9.450;2022-07-01T07:29:29;16.90;99.90
16285;DHT22;8250;52.426;9.450;2022-07-01T07:31:56;16.90;99.90
16285;DHT22;8250;52.426;9.450;2022-07-01T07:34:23;16.80;99.90
16285;DHT22;8250;52.426;9.450;2022-07-01T07:36:50;16.80;99.90
16285;DHT22;8250;52.426;9.450;2022-07-01T07:39:17;16.80;99.90
16285;DHT22;8250;52.426;9.450;2022-07-01T07:41:44;16.70;99.90
16285;DHT22;8250;52.426;9.450;2022-07-01T07:44:11;16.80;99.90
16285;DHT22;8250;52.426;9.450;2022-07-01T07:46:39;16.80;99.90
16285;DHT22;8250;52.426;9.450;2022-07-01T07:49:06;16.80;99.90
16285;DHT22;8250;52.426;9.450;2022-07-01T07:51:33;16.70;99.90
16285;DHT22;8250;52.426;9.450;2022-07-01T07:54:00;16.70;99.90
16285;DHT22;8250;52.426;9.450;2022-07-01T07:56:28;16.70;99.90
16285;DHT22;8250;52.426;9.450;2022-07-01T07:58:55;16.70;99.90
16285;DHT22;8250;52.426;9.450;2022-07-01T08:01:22;16.70;99.90
16285;DHT22;8250;52.426;9.450;2022-07-01T08:03:50;16.70;99.90
16285;DHT22;8250;52.426;9.450;2022-07-01T08:06:18;16.70;99.90
16285;DHT22;8250;52.426;9.450;2022-07-01T08:08:45;16.70;99.90
16285;DHT22;8250;52.426;9.450;2022-07-01T08:11:12;16.70;99.90
16285;DHT22;8250;52.426;9.450;2022-07-01T08:13:39;16.70;99.90
16285;DHT22;8250;52.426;9.450;2022-07-01T08:16:06;16.60;99.90
16285;DHT22;8250;52.426;9.450;2022-07-01T08:18:33;16.70;99.90
16285;DHT22;8250;52.426;9.450;2022-07-01T08:21:02;16.70;99.90
16285;DHT22;8250;52.426;9.450;2022-07-01T08:23:29;16.80;99.90
16285;DHT22;8250;52.426;9.450;2022-07-01T08:25:56;16.80;99.90
16285;DHT22;8250;52.426;9.450;2022-07-01T08:28:23;16.80;99.90
16285;DHT22;8250;52.426;9.450;2022-07-01T08:30:50;16.80;99.90
16285;DHT22;8250;52.426;9.450;2022-07-01T08:33:17;16.80;99.90
16285;DHT22;8250;52.426;9.450;2022-07-01T08:35:44;16.90;99.90
16285;DHT22;8250;52.426;9.450;2022-07-01T08:38:12;16.90;99.90
16285;DHT22;8250;52.426;9.450;2022-07-01T08:40:40;16.90;99.90
16285;DHT22;8250;52.426;9.450;2022-07-01T08:43:07;16.90;99.90
16285;DHT22;8250;52.426;9.450;2022-07-01T08:45:35;16.90;99.90
16285;DHT22;8250;52.426;9.450;2022-07-01T08:48:04;16.90;99.90
16285;DHT22;8250;52.426;9.450;2022-07-01T08:50:33;16.90;99.90
16285;DHT22;8250;52.426;9.450;2022-07-01T08:53:01;16.80;99.90
16285;DHT22;8250;52.426;9.450;2022-07-01T08:55:29;16.80;99.90
16285;DHT22;8250;52.426;9.450;2022-07-01T08:57:57;16.80;99.90
16285;DHT22;8250;52.426;9.450;2022-07-01T09:00:29;16.80;99.90
16285;DHT22;8250;52.426;9.450;2022-07-01T09:02:58;16.90;99.90
16285;DHT22;8250;52.426;9.450;2022-07-01T09:05:27;16.80;99.90
16285;DHT22;8250;52.426;9.450;2022-07-01T09:07:56;16.80;99.90
16285;DHT22;8250;52.426;9.450;2022-07-01T09:10:24;16.80;99.90
16285;DHT22;8250;52.426;9.450;2022-07-01T09:12:53;16.80;99.90
16285;DHT22;8250;52.426;9.450;2022-07-01T09:15:24;16.80;99.90
16285;DHT22;8250;52.426;9.450;2022-07-01T09:17:53;16.80;99.90
16285;DHT22;8250;52.426;9.450;2022-07-01T09:20:25;16.90;99.90
16285;DHT22;8250;52.426;9.450;2022-07-01T09:23:00;17.00;99.90
16285;DHT22;8250;52.426;9.450;2022-07-01T09:25:28;17.00;99.90
16285;DHT22;8250;52.426;9.450;2022-07-01T09:28:07;17.00;99.90
16285;DHT22;8250;52.426;9.450;2022-07-01T09:30:35;17.00;99.90
16285;DHT22;8250;52.426;9.450;2022-07-01T09:33:13;17.10;99.90
16285;DHT22;8250;52.426;9.450;2022-07-01T09:35:41;17.10;99.90
16285;DHT22;8250;52.426;9.450;2022-07-01T09:38:11;17.10;99.90
16285;DHT22;8250;52.426;9.450;2022-07-01T09:40:52;17.10;99.90
16285;DHT22;8250;52.426;9.450;2022-07-01T09:43:23;17.10;99.90
16285;DHT22;8250;52.426;9.450;2022-07-01T09:45:59;17.20;99.90
16285;DHT22;8250;52.426;9.450;2022-07-01T09:48:42;17.20;99.90
16285;DHT22;8250;52.426;9.450;2022-07-01T09:51:10;17.20;99.90
16285;DHT22;8250;52.426;9.450;2022-07-01T09:53:38;17.20;99.90
16285;DHT22;8250;52.426;9.450;2022-07-01T09:56:05;17.20;99.90
16285;DHT22;8250;52.426;9.450;2022-07-01T09:58:33;17.20;99.90
16285;DHT22;8250;52.426;9.450;2022-07-01T10:01:03;17.20;99.90
16285;DHT22;8250;52.426;9.450;2022-07-01T10:03:31;17.30;99.90
16285;DHT22;8250;52.426;9.450;2022-07-01T10:06:14;17.40;99.90
16285;DHT22;8250;52.426;9.450;2022-07-01T10:08:58;17.30;99.90
16285;DHT22;8250;52.426;9.450;2022-07-01T10:14:23;17.30;99.90
16285;DHT22;8250;52.426;9.450;2022-07-01T10:16:50;17.40;99.90
16285;DHT22;8250;52.426;9.450;2022-07-01T10:19:30;17.50;99.90
16285;DHT22;8250;52.426;9.450;2022-07-01T10:22:01;17.50;99.90
16285;DHT22;8250;52.426;9.450;2022-07-01T10:24:47;17.60;99.90
16285;DHT22;8250;52.426;9.450;2022-07-01T10:27:20;17.70;99.90
16285;DHT22;8250;52.426;9.450;2022-07-01T10:29:49;17.80;99.90
16285;DHT22;8250;52.426;9.450;2022-07-01T10:32:26;17.80;99.90
16285;DHT22;8250;52.426;9.450;2022-07-01T10:35:04;17.90;99.90
16285;DHT22;8250;52.426;9.450;2022-07-01T10:37:31;18.00;99.90
16285;DHT22;8250;52.426;9.450;2022-07-01T10:39:58;18.00;99.90
16285;DHT22;8250;52.426;9.450;2022-07-01T10:42:30;18.10;99.90
16285;DHT22;8250;52.426;9.450;2022-07-01T10:45:10;18.10;99.90
16285;DHT22;8250;52.426;9.450;2022-07-01T10:47:38;18.20;99.90
16285;DHT22;8250;52.426;9.450;2022-07-01T10:50:10;18.20;99.90
16285;DHT22;8250;52.426;9.450;2022-07-01T10:52:38;18.30;99.90
16285;DHT22;8250;52.426;9.450;2022-07-01T10:55:06;18.30;99.90
16285;DHT22;8250;52.426;9.450;2022-07-01T10:57:38;18.30;99.90
16285;DHT22;8250;52.426;9.450;2022-07-01T11:00:28;18.40;99.90
16285;DHT22;8250;52.426;9.450;2022-07-01T11:03:13;18.40;99.90
16285;DHT22;8250;52.426;9.450;2022-07-01T11:05:41;18.30;99.90
16285;DHT22;8250;52.426;9.450;2022-07-01T11:08:09;18.40;99.90
16285;DHT22;8250;52.426;9.450;2022-07-01T11:10:38;18.40;99.90
16285;DHT22;8250;52.426;9.450;2022-07-01T11:13:05;18.40;99.90
16285;DHT22;8250;52.426;9.450;2022-07-01T11:15:33;18.40;99.90
16285;DHT22;8250;52.426;9.450;2022-07-01T11:18:01;18.50;99.90
16285;DHT22;8250;52.426;9.450;2022-07-01T11:20:31;18.50;99.90
16285;DHT22;8250;52.426;9.450;2022-07-01T11:22:58;18.50;99.90
16285;DHT22;8250;52.426;9.450;2022-07-01T11:25:25;18.50;99.90
16285;DHT22;8250;52.426;9.450;2022-07-01T11:27:53;18.50;99.90
16285;DHT22;8250;52.426;9.450;2022-07-01T11:30:21;18.60;99.90
16285;DHT22;8250;52.426;9.450;2022-07-01T11:32:51;18.60;99.90
16285;DHT22;8250;52.426;9.450;2022-07-01T11:35:19;18.60;99.90
16285;DHT22;8250;52.426;9.450;2022-07-01T11:38:05;18.70;99.90
16285;DHT22;8250;52.426;9.450;2022-07-01T11:40:50;18.70;99.90
16285;DHT22;8250;52.426;9.450;2022-07-01T11:43:22;18.60;99.90
16285;DHT22;8250;52.426;9.450;2022-07-01T11:45:49;18.60;99.90
16285;DHT22;8250;52.426;9.450;2022-07-01T11:48:35;18.60;99.90
16285;DHT22;8250;52.426;9.450;2022-07-01T11:51:07;18.50;99.90
16285;DHT22;8250;52.426;9.450;2022-07-01T11:53:34;18.50;99.90
16285;DHT22;8250;52.426;9.450;2022-07-01T11:56:01;18.50;99.90
16285;DHT22;8250;52.426;9.450;2022-07-01T11:58:45;18.40;99.90
16285;DHT22;8250;52.426;9.450;2022-07-01T12:01:23;18.50;99.90
16285;DHT22;8250;52.426;9.450;2022-07-01T12:03:52;18.50;99.90
16285;DHT22;8250;52.426;9.450;2022-07-01T12:06:19;18.50;99.90
16285;DHT22;8250;52.426;9.450;2022-07-01T12:08:49;18.50;99.90
16285;DHT22;8250;52.426;9.450;2022-07-01T12:11:17;18.40;99.90
16285;DHT22;8250;52.426;9.450;2022-07-01T12:13:44;18.40;99.90
16285;DHT22;8250;52.426;9.450;2022-07-01T12:16:13;18.50;99.90
16285;DHT22;8250;52.426;9.450;2022-07-01T12:18:52;18.40;99.90
16285;DHT22;8250;52.426;9.450;2022-07-01T12:21:19;18.40;99.90
16285;DHT22;8250;52.426;9.450;2022-07-01T12:24:08;18.40;99.90
16285;DHT22;8250;52.426;9.450;2022-07-01T12:26:46;18.40;99.90
16285;DHT22;8250;52.426;9.450;2022-07-01T12:29:15;18.40;99.90
16285;DHT22;8250;52.426;9.450;2022-07-01T12:31:42;18.40;99.90
16285;DHT22;8250;52.426;9.450;2022-07-01T12:34:11;18.40;99.90
16285;DHT22;8250;52.426;9.450;2022-07-01T12:36:47;18.50;99.90
16285;DHT22;8250;52.426;9.450;2022-07-01T12:39:14;18.40;99.90
16285;DHT22;8250;52.426;9.450;2022-07-01T12:41:49;18.50;99.90
16285;DHT22;8250;52.426;9.450;2022-07-01T12:44:21;18.40;99.90
16285;DHT22;8250;52.426;9.450;2022-07-01T12:46:48;18.50;99.90
16285;DHT22;8250;52.426;9.450;2022-07-01T12:49:20;18.50;99.90
16285;DHT22;8250;52.426;9.450;2022-07-01T12:51:48;18.60;99.90
16285;DHT22;8250;52.426;9.450;2022-07-01T12:54:29;18.70;99.90
16285;DHT22;8250;52.426;9.450;2022-07-01T12:56:57;18.70;99.90
16285;DHT22;8250;52.426;9.450;2022-07-01T12:59:24;18.80;99.90
16285;DHT22;8250;52.426;9.450;2022-07-01T13:01:51;18.90;99.90
16285;DHT22;8250;52.426;9.450;2022-07-01T13:04:25;18.90;99.90
16285;DHT22;8250;52.426;9.450;2022-07-01T13:06:52;18.90;99.90
16285;DHT22;8250;52.426;9.450;2022-07-01T13:09:19;19.00;99.90
16285;DHT22;8250;52.426;9.450;2022-07-01T13:11:46;19.00;99.90
16285;DHT22;8250;52.426;9.450;2022-07-01T13:14:13;19.10;99.90
16285;DHT22;8250;52.426;9.450;2022-07-01T13:16:40;19.10;99.90
16285;DHT22;8250;52.426;9.450;2022-07-01T13:19:07;19.20;99.90
16285;DHT22;8250;52.426;9.450;2022-07-01T13:21:35;19.30;99.90
16285;DHT22;8250;52.426;9.450;2022-07-01T13:24:02;19.30;99.90
16285;DHT22;8250;52.426;9.450;2022-07-01T13:26:30;19.30;99.90
16285;DHT22;8250;52.426;9.450;2022-07-01T13:28:57;19.40;99.90
16285;DHT22;8250;52.426;9.450;2022-07-01T13:31:24;19.40;99.90
16285;DHT22;8250;52.426;9.450;2022-07-01T13:33:50;19.40;99.90
16285;DHT22;8250;52.426;9.450;2022-07-01T13:36:17;19.40;99.90
16285;DHT22;8250;52.426;9.450;2022-07-01T13:38:45;19.40;99.90
16285;DHT22;8250;52.426;9.450;2022-07-01T13:41:14;19.40;99.90
16285;DHT22;8250;52.426;9.450;2022-07-01T13:43:41;19.40;99.90
16285;DHT22;8250;52.426;9.450;2022-07-01T13:46:09;19.40;99.90
16285;DHT22;8250;52.426;9.450;2022-07-01T13:48:36;19.40;99.90
16285;DHT22;8250;52.426;9.450;2022-07-01T13:51:03;19.40;99.90
16285;DHT22;8250;52.426;9.450;2022-07-01T13:53:30;19.40;99.90
16285;DHT22;8250;52.426;9.450;2022-07-01T13:55:58;19.50;99.90
16285;DHT22;8250;52.426;9.450;2022-07-01T13:58:25;19.60;99.90
16285;DHT22;8250;52.426;9.450;2022-07-01T14:00:52;19.60;99.90
16285;DHT22;8250;52.426;9.450;2022-07-01T14:03:18;19.70;99.90
16285;DHT22;8250;52.426;9.450;2022-07-01T14:05:45;19.70;99.90
16285;DHT22;8250;52.426;9.450;2022-07-01T14:08:12;19.70;99.90
16285;DHT22;8250;52.426;9.450;2022-07-01T14:10:41;19.70;99.90
16285;DHT22;8250;52.426;9.450;2022-07-01T14:13:09;19.80;99.90
16285;DHT22;8250;52.426;9.450;2022-07-01T14:15:36;19.80;99.90
16285;DHT22;8250;52.426;9.450;2022-07-01T14:18:03;19.90;99.90
16285;DHT22;8250;52.426;9.450;2022-07-01T14:20:30;20.00;99.90
16285;DHT22;8250;52.426;9.450;2022-07-01T14:22:57;20.10;99.90
16285;DHT22;8250;52.426;9.450;2022-07-01T14:25:24;20.20;99.90
16285;DHT22;8250;52.426;9.450;2022-07-01T14:27:51;20.10;99.90
16285;DHT22;8250;52.426;9.450;2022-07-01T14:30:19;20.10;99.90
16285;DHT22;8250;52.426;9.450;2022-07-01T14:32:46;20.10;99.90
16285;DHT22;8250;52.426;9.450;2022-07-01T14:35:13;20.00;99.90
16285;DHT22;8250;52.426;9.450;2022-07-01T14:37:40;20.00;99.90
16285;DHT22;8250;52.426;9.450;2022-07-01T14:40:10;20.00;99.90
16285;DHT22;8250;52.426;9.450;2022-07-01T14:42:38;20.00;99.90
16285;DHT22;8250;52.426;9.450;2022-07-01T14:45:06;20.20;99.90
16285;DHT22;8250;52.426;9.450;2022-07-01T14:47:35;20.30;99.90
16285;DHT22;8250;52.426;9.450;2022-07-01T14:50:02;20.30;99.90
16285;DHT22;8250;52.426;9.450;2022-07-01T14:52:29;20.30;99.90
16285;DHT22;8250;52.426;9.450;2022-07-01T14:54:56;20.30;99.90
16285;DHT22;8250;52.426;9.450;2022-07-01T14:57:23;20.20;99.90
16285;DHT22;8250;52.426;9.450;2022-07-01T14:59:50;20.30;99.90
16285;DHT22;8250;52.426;9.450;2022-07-01T15:02:18;20.30;99.90
16285;DHT22;8250;52.426;9.450;2022-07-01T15:04:47;20.40;99.90
16285;DHT22;8250;52.426;9.450;2022-07-01T15:07:14;20.40;99.90
16285;DHT22;8250;52.426;9.450;2022-07-01T15:09:41;20.40;99.90
16285;DHT22;8250;52.426;9.450;2022-07-01T15:12:09;20.30;99.90
16285;DHT22;8250;52.426;9.450;2022-07-01T15:14:36;20.20;99.90
16285;DHT22;8250;52.426;9.450;2022-07-01T15:17:03;20.10;99.90
16285;DHT22;8250;52.426;9.450;2022-07-01T15:19:30;20.00;99.90
16285;DHT22;8250;52.426;9.450;2022-07-01T15:21:58;20.00;99.90
16285;DHT22;8250;52.426;9.450;2022-07-01T15:24:25;20.10;99.90
16285;DHT22;8250;52.426;9.450;2022-07-01T15:26:52;20.00;99.90
16285;DHT22;8250;52.426;9.450;2022-07-01T15:29:19;20.00;99.90
16285;DHT22;8250;52.426;9.450;2022-07-01T15:31:46;20.10;99.90
16285;DHT22;8250;52.426;9.450;2022-07-01T15:34:14;20.10;99.90
16285;DHT22;8250;52.426;9.450;2022-07-01T15:36:41;20.10;99.90
16285;DHT22;8250;52.426;9.450;2022-07-01T15:39:10;20.10;99.90
16285;DHT22;8250;52.426;9.450;2022-07-01T15:41:38;20.30;99.90
16285;DHT22;8250;52.426;9.450;2022-07-01T15:44:05;20.30;99.90
16285;DHT22;8250;52.426;9.450;2022-07-01T15:46:33;20.30;99.90
16285;DHT22;8250;52.426;9.450;2022-07-01T15:49:00;20.30;99.90
16285;DHT22;8250;52.426;9.450;2022-07-01T15:51:28;20.30;99.90
16285;DHT22;8250;52.426;9.450;2022-07-01T15:53:55;20.30;99.90
16285;DHT22;8250;52.426;9.450;2022-07-01T15:56:24;20.40;99.90